Terminal Aerodrome Forecast
Issued by NWS

Current Version | Previous Version | Text Only | Print | Product List | Glossary On
Versions: 1 2 3 4 5 6 7 8 9 10 11 12 13 14 15 16
704
FTUS45 KABQ 161135
TAFGUP
TAF
KGUP 161135Z 1612/1712 24008KT P6SM BKN040
      TEMPO 1612/1615 BKN020
     FM162100 28008KT P6SM VCSH SCT035 BKN050
     FM170300 VRB04KT P6SM BKN050
     FM170900 VRB04KT 3SM BR BKN010=

USA.gov is the U.S. government's official web portal to all federal, state and local government web resources and services.